Time;durP1;ratioP1;P1;durP2;ratioP2;P2;SDS_P1;SDS_P2;PMS_P1;PMS_P2;Temp;Humidity;BMP_temperature;BMP_pressure;BME280_temperature;BME280_humidity;BME280_pressure;Samples;Min_cycle;Max_cycle;Signal;HPM_P1;HPM_P2
2022/08/18 00:02:16;;;;;;;21.90;19.63;;;22.50;99.90;;;;;;5056571;28;20041;-85
2022/08/18 00:04:43;;;;;;;22.50;20.17;;;22.50;99.90;;;;;;5040163;28;20033;-84
2022/08/18 00:07:12;;;;;;;22.92;20.25;;;22.50;99.90;;;;;;5036690;28;20021;-85
2022/08/18 00:09:39;;;;;;;23.02;20.65;;;22.50;99.90;;;;;;5054934;28;20032;-85
2022/08/18 00:12:15;;;;;;;21.73;19.52;;;22.50;99.90;;;;;;5053019;28;20033;-85
2022/08/18 00:14:41;;;;;;;22.23;20.08;;;22.50;99.90;;;;;;5054876;28;20168;-85
2022/08/18 00:17:07;;;;;;;21.13;19.02;;;22.50;99.90;;;;;;5039484;28;20067;-85
2022/08/18 00:19:32;;;;;;;22.67;20.45;;;22.50;99.90;;;;;;5063214;28;20077;-85
2022/08/18 00:21:58;;;;;;;22.85;20.65;;;22.50;99.90;;;;;;5052775;28;20029;-85
2022/08/18 00:24:24;;;;;;;23.67;21.33;;;22.50;99.90;;;;;;5036553;28;20020;-85
2022/08/18 00:26:51;;;;;;;22.13;19.92;;;22.50;99.90;;;;;;5054126;28;20079;-87
2022/08/18 00:29:17;;;;;;;22.08;19.95;;;22.40;99.90;;;;;;5052440;28;20466;-85
2022/08/18 00:31:43;;;;;;;23.73;21.33;;;22.40;99.90;;;;;;5054012;28;20165;-84
2022/08/18 00:34:09;;;;;;;25.10;22.50;;;22.50;99.90;;;;;;5055210;28;20059;-84
2022/08/18 00:36:35;;;;;;;25.88;23.13;;;22.40;99.90;;;;;;5052724;28;20481;-84
2022/08/18 00:39:01;;;;;;;25.13;22.48;;;22.40;99.90;;;;;;5017300;28;20040;-85
2022/08/18 00:41:27;;;;;;;24.65;22.25;;;22.40;99.90;;;;;;5036162;28;20036;-85
2022/08/18 00:43:54;;;;;;;23.73;21.35;;;22.40;99.90;;;;;;5065945;28;20087;-84
2022/08/18 00:46:30;;;;;;;24.70;22.10;;;22.40;99.90;;;;;;5050310;28;20391;-84
2022/08/18 00:48:56;;;;;;;25.10;22.48;;;22.40;99.90;;;;;;5052764;28;20025;-86
2022/08/18 00:51:28;;;;;;;23.80;21.30;;;22.40;99.90;;;;;;5035537;28;20422;-84
2022/08/18 00:54:06;;;;;;;23.80;20.85;;;22.40;99.90;;;;;;5052729;28;20051;-83
2022/08/18 00:56:46;;;;;;;22.17;19.88;;;22.40;99.90;;;;;;5047906;28;20025;-83
2022/08/18 00:59:43;;;;;;;22.80;20.38;;;22.40;99.90;;;;;;5061613;28;20032;-84
2022/08/18 01:02:18;;;;;;;22.10;19.65;;;22.40;99.90;;;;;;5033959;28;20077;-84
2022/08/18 01:04:51;;;;;;;22.35;20.05;;;22.40;99.90;;;;;;5052130;28;20395;-84
2022/08/18 01:07:27;;;;;;;23.05;19.45;;;22.30;99.90;;;;;;5072103;28;20448;-83
2022/08/18 01:09:52;;;;;;;23.25;20.73;;;22.30;99.90;;;;;;5069953;28;20060;-84
2022/08/18 01:12:18;;;;;;;20.92;18.85;;;22.30;99.90;;;;;;5052125;28;20098;-84
2022/08/18 01:14:45;;;;;;;22.10;19.88;;;22.30;99.90;;;;;;5035846;28;20469;-85
2022/08/18 01:22:46;;;;;;;24.02;21.58;;;22.30;99.90;;;;;;5063467;28;20036;-85
2022/08/18 01:27:57;;;;;;;19.95;17.80;;;22.20;99.90;;;;;;5052717;28;20082;-86
2022/08/18 01:30:24;;;;;;;21.77;19.42;;;22.20;99.90;;;;;;5035805;28;20112;-84
2022/08/18 01:32:51;;;;;;;19.13;17.23;;;22.20;99.90;;;;;;5035509;28;20040;-84
2022/08/18 01:35:19;;;;;;;18.75;16.77;;;22.20;99.90;;;;;;5035247;28;20037;-85
2022/08/18 01:37:45;;;;;;;17.88;16.02;;;22.20;99.90;;;;;;5032770;28;20022;-85
2022/08/18 01:40:14;;;;;;;17.33;15.68;;;22.10;99.90;;;;;;5047391;28;20029;-85
2022/08/18 01:42:42;;;;;;;16.90;14.50;;;22.10;99.90;;;;;;5058420;28;20036;-83
2022/08/18 01:45:08;;;;;;;16.23;14.27;;;22.10;99.90;;;;;;5062674;28;20124;-83
2022/08/18 01:47:35;;;;;;;15.82;14.23;;;22.10;99.90;;;;;;5061973;28;20088;-84
2022/08/18 01:50:02;;;;;;;16.25;14.35;;;22.10;99.90;;;;;;5065139;28;20480;-84
2022/08/18 01:52:28;;;;;;;16.77;14.45;;;22.10;99.90;;;;;;5057700;28;20035;-83
2022/08/18 01:54:56;;;;;;;15.68;13.90;;;22.10;99.90;;;;;;5056608;28;20032;-85
2022/08/18 01:57:22;;;;;;;16.27;14.27;;;22.10;99.90;;;;;;5055820;28;20510;-84
2022/08/18 01:59:48;;;;;;;15.40;13.20;;;22.00;99.90;;;;;;5056056;28;20033;-83
2022/08/18 02:02:21;;;;;;;14.57;13.15;;;22.10;99.90;;;;;;5057277;28;20117;-85
2022/08/18 02:04:47;;;;;;;14.18;12.52;;;22.00;99.90;;;;;;5042292;28;20100;-85
2022/08/18 02:07:13;;;;;;;14.02;12.52;;;22.10;99.90;;;;;;5056292;28;20115;-84
2022/08/18 02:09:41;;;;;;;14.57;13.07;;;22.00;99.90;;;;;;5056025;28;20024;-85
2022/08/18 02:12:08;;;;;;;14.15;12.35;;;22.00;99.90;;;;;;5056236;28;20130;-84
2022/08/18 02:14:35;;;;;;;13.50;12.10;;;22.00;99.90;;;;;;5055591;28;20029;-85
2022/08/18 02:17:03;;;;;;;13.27;11.63;;;22.00;99.90;;;;;;5056193;28;20025;-85
2022/08/18 02:19:47;;;;;;;15.43;11.73;;;22.00;99.90;;;;;;5070139;28;20067;-84
2022/08/18 02:22:17;;;;;;;13.60;12.05;;;22.00;99.90;;;;;;5042600;28;20040;-85
2022/08/18 02:24:43;;;;;;;14.40;12.00;;;21.90;99.90;;;;;;5056318;28;20024;-84
2022/08/18 02:27:10;;;;;;;14.23;11.02;;;22.00;99.90;;;;;;5055440;28;20041;-85
2022/08/18 02:29:36;;;;;;;14.10;11.32;;;21.90;99.90;;;;;;5055504;28;20064;-84
2022/08/18 02:32:02;;;;;;;12.95;11.75;;;21.90;99.90;;;;;;5056728;28;20447;-85
2022/08/18 02:34:28;;;;;;;13.73;12.23;;;21.90;99.90;;;;;;5055332;28;20096;-85
2022/08/18 02:36:53;;;;;;;15.43;12.70;;;21.90;99.90;;;;;;5057731;28;20469;-84
2022/08/18 02:39:20;;;;;;;13.05;11.70;;;21.90;99.90;;;;;;5039575;28;20095;-86
2022/08/18 02:41:46;;;;;;;12.68;11.43;;;21.90;99.90;;;;;;5056723;28;20024;-85
2022/08/18 02:44:12;;;;;;;14.68;12.20;;;21.90;99.90;;;;;;5039444;28;20522;-85
2022/08/18 02:46:38;;;;;;;13.50;12.20;;;21.80;99.90;;;;;;5043104;28;20029;-84
2022/08/18 02:49:06;;;;;;;14.32;12.93;;;21.80;99.90;;;;;;5057060;28;20081;-84
2022/08/18 02:51:31;;;;;;;14.25;12.27;;;21.80;99.90;;;;;;5039138;28;20028;-85
2022/08/18 02:53:58;;;;;;;13.95;11.63;;;21.80;99.90;;;;;;5044579;28;20477;-85
2022/08/18 02:56:27;;;;;;;14.18;11.63;;;21.80;99.90;;;;;;5056354;28;20033;-86
2022/08/18 02:58:59;;;;;;;15.02;11.85;;;21.80;99.90;;;;;;5056458;28;20063;-84
2022/08/18 03:01:28;;;;;;;12.00;10.77;;;21.80;99.90;;;;;;5056229;28;20106;-84
2022/08/18 03:03:56;;;;;;;13.27;11.80;;;21.80;99.90;;;;;;5042600;28;20055;-83
2022/08/18 03:06:23;;;;;;;13.80;12.13;;;21.80;99.90;;;;;;5056455;28;20033;-85
2022/08/18 03:08:50;;;;;;;14.13;11.90;;;21.70;99.90;;;;;;5039436;28;20025;-84
2022/08/18 03:11:18;;;;;;;12.23;10.82;;;21.70;99.90;;;;;;5056312;28;20029;-87
2022/08/18 03:13:45;;;;;;;12.85;10.43;;;21.70;99.90;;;;;;5056399;28;20040;-85
2022/08/18 03:16:11;;;;;;;12.05;10.70;;;21.70;99.90;;;;;;5057654;28;20048;-85
2022/08/18 03:18:37;;;;;;;13.23;10.77;;;21.70;99.90;;;;;;5069520;28;20372;-88
2022/08/18 03:21:11;;;;;;;12.10;10.55;;;21.70;99.90;;;;;;5077187;28;20057;-85
2022/08/18 03:23:40;;;;;;;12.55;10.45;;;21.70;99.90;;;;;;5078265;28;20056;-85
2022/08/18 03:26:11;;;;;;;12.27;10.52;;;21.70;99.90;;;;;;5061765;28;20014;-84
2022/08/18 03:28:39;;;;;;;13.00;10.75;;;21.70;99.90;;;;;;5065033;28;20116;-84
2022/08/18 03:31:05;;;;;;;13.27;11.10;;;21.70;99.90;;;;;;5076277;28;20001;-84
2022/08/18 03:33:31;;;;;;;10.75;9.65;;;21.70;99.90;;;;;;5052313;28;20028;-85
2022/08/18 03:36:06;;;;;;;11.38;9.95;;;21.70;99.90;;;;;;5059314;28;20454;-84
2022/08/18 03:38:32;;;;;;;13.38;9.85;;;21.70;99.90;;;;;;5058920;28;20079;-84
2022/08/18 03:40:58;;;;;;;10.65;9.45;;;21.70;99.90;;;;;;5057599;28;20020;-85
2022/08/18 03:43:24;;;;;;;9.68;8.70;;;21.60;99.90;;;;;;5040368;28;20051;-85
2022/08/18 03:45:50;;;;;;;10.85;9.10;;;21.70;99.90;;;;;;5040809;28;20040;-84
2022/08/18 03:48:15;;;;;;;14.27;10.13;;;21.70;99.90;;;;;;5066938;28;20025;-83
2022/08/18 03:50:41;;;;;;;12.90;9.40;;;21.60;99.90;;;;;;5076154;28;20017;-84
2022/08/18 03:53:07;;;;;;;15.63;9.90;;;21.60;99.90;;;;;;5109247;28;20036;-85
2022/08/18 03:55:32;;;;;;;12.35;10.13;;;21.60;99.90;;;;;;5029698;28;20029;-84
2022/08/18 03:58:02;;;;;;;11.48;9.48;;;21.60;99.90;;;;;;5069692;28;20013;-84
2022/08/18 04:00:30;;;;;;;12.90;10.60;;;21.60;99.90;;;;;;5094590;28;20036;-86
2022/08/18 04:02:58;;;;;;;11.63;9.32;;;21.60;99.90;;;;;;5088333;28;20001;-85
2022/08/18 04:05:24;;;;;;;10.35;9.25;;;21.60;99.90;;;;;;5069170;28;20051;-85
2022/08/18 04:07:50;;;;;;;12.50;10.60;;;21.60;99.90;;;;;;5022267;28;20119;-83
2022/08/18 04:10:16;;;;;;;11.15;9.75;;;21.60;99.90;;;;;;5071046;28;20567;-84
2022/08/18 04:12:41;;;;;;;10.93;9.77;;;21.60;99.90;;;;;;5037633;28;20423;-84
2022/08/18 04:15:08;;;;;;;10.43;9.32;;;21.60;99.90;;;;;;5037249;28;20396;-84
2022/08/18 04:17:34;;;;;;;12.77;9.77;;;21.60;99.90;;;;;;5054682;28;20071;-84
2022/08/18 04:20:00;;;;;;;12.18;9.75;;;21.60;99.90;;;;;;5058981;28;20124;-84
2022/08/18 04:22:26;;;;;;;10.45;9.35;;;21.60;99.90;;;;;;5024594;28;20022;-85
2022/08/18 04:24:52;;;;;;;14.45;9.32;;;21.60;99.90;;;;;;5039424;28;20461;-85
2022/08/18 04:27:19;;;;;;;11.55;9.07;;;21.60;99.90;;;;;;5036346;28;20030;-84
2022/08/18 04:29:45;;;;;;;12.30;9.23;;;21.50;99.90;;;;;;5028485;28;20043;-84
2022/08/18 04:32:11;;;;;;;11.23;8.88;;;21.50;99.90;;;;;;5060944;28;20460;-86
2022/08/18 04:34:36;;;;;;;11.30;8.05;;;21.50;99.90;;;;;;5058579;28;20025;-85
2022/08/18 04:37:02;;;;;;;14.77;8.45;;;21.60;99.90;;;;;;5038246;28;20479;-84
2022/08/18 04:39:29;;;;;;;10.40;8.20;;;21.50;99.90;;;;;;5056331;28;20549;-86
2022/08/18 04:41:55;;;;;;;12.68;8.07;;;21.50;99.90;;;;;;5038871;28;20074;-85
2022/08/18 04:44:21;;;;;;;12.98;8.05;;;21.50;99.90;;;;;;5040729;28;20029;-86
2022/08/18 04:46:50;;;;;;;12.15;7.88;;;21.50;99.90;;;;;;5055641;28;20029;-85
2022/08/18 04:49:18;;;;;;;10.27;7.78;;;21.50;99.90;;;;;;5053790;28;20029;-82
2022/08/18 04:54:39;;;;;;;11.95;7.78;;;21.50;99.90;;;;;;5057716;28;20083;-84
2022/08/18 04:57:14;;;;;;;11.65;8.45;;;21.50;99.90;;;;;;5039923;28;20032;-83
2022/08/18 04:59:43;;;;;;;12.23;9.10;;;21.50;99.90;;;;;;5057713;28;20040;-84
2022/08/18 05:02:09;;;;;;;13.05;9.40;;;21.50;99.90;;;;;;5061058;28;20491;-84
2022/08/18 05:04:37;;;;;;;12.52;8.60;;;21.50;99.90;;;;;;5050477;28;20025;-84
2022/08/18 05:07:09;;;;;;;12.45;8.93;;;21.50;99.90;;;;;;5043634;28;20028;-85
2022/08/18 05:09:35;;;;;;;12.77;9.35;;;21.50;99.90;;;;;;5052573;28;20033;-85
2022/08/18 05:12:03;;;;;;;13.90;9.75;;;21.50;99.90;;;;;;5040438;28;20064;-85
2022/08/18 05:14:30;;;;;;;10.75;9.45;;;21.50;99.90;;;;;;5053481;28;20021;-85
2022/08/18 05:17:03;;;;;;;13.55;10.70;;;21.50;99.90;;;;;;5053172;28;20053;-84
2022/08/18 05:19:29;;;;;;;14.05;10.25;;;21.50;99.90;;;;;;5052144;28;20060;-85
2022/08/18 05:21:57;;;;;;;16.35;11.32;;;21.50;99.90;;;;;;5052374;28;20033;-86
2022/08/18 05:24:26;;;;;;;13.30;10.20;;;21.50;99.90;;;;;;5052588;28;20020;-85
2022/08/18 05:26:52;;;;;;;12.27;10.18;;;21.50;99.90;;;;;;5054835;28;20028;-85
2022/08/18 05:29:20;;;;;;;12.73;10.07;;;21.50;99.90;;;;;;5054662;28;20070;-80
2022/08/18 05:31:48;;;;;;;15.68;10.60;;;21.50;99.90;;;;;;5052603;28;20485;-80
2022/08/18 05:34:15;;;;;;;15.85;10.77;;;21.50;99.90;;;;;;5063251;28;20040;-79
2022/08/18 05:36:50;;;;;;;13.50;10.10;;;21.50;99.90;;;;;;5068858;28;20119;-79
2022/08/18 05:39:22;;;;;;;17.30;10.02;;;21.50;99.90;;;;;;5052240;28;20029;-80
2022/08/18 05:42:10;;;;;;;13.35;9.32;;;21.50;99.90;;;;;;5055720;28;20021;-80
2022/08/18 05:44:46;;;;;;;12.82;9.80;;;21.50;99.90;;;;;;5064397;28;20021;-81
2022/08/18 05:47:31;;;;;;;10.95;8.10;;;21.50;99.90;;;;;;5052015;28;20032;-80
2022/08/18 05:50:04;;;;;;;14.13;9.27;;;21.50;99.90;;;;;;5051255;28;20029;-85
2022/08/18 05:52:42;;;;;;;12.00;9.45;;;21.50;99.90;;;;;;5055964;28;20057;-86
2022/08/18 05:58:40;;;;;;;12.05;7.78;;;21.50;99.90;;;;;;5055663;28;20074;-86
2022/08/18 06:01:32;;;;;;;11.05;7.03;;;21.50;99.90;;;;;;5047080;28;20041;-86
2022/08/18 06:04:05;;;;;;;12.23;7.35;;;21.50;99.90;;;;;;5066727;28;20021;-86
2022/08/18 06:06:32;;;;;;;11.05;7.07;;;21.50;99.90;;;;;;5053622;28;20079;-86
2022/08/18 06:09:01;;;;;;;11.40;7.47;;;21.50;99.90;;;;;;5054069;28;20048;-86
2022/08/18 06:11:26;;;;;;;11.18;7.63;;;21.50;99.90;;;;;;5062101;28;20024;-87
2022/08/18 06:13:52;;;;;;;10.40;6.88;;;21.50;99.90;;;;;;5039060;28;20033;-86
2022/08/18 06:16:35;;;;;;;13.85;7.72;;;21.50;99.90;;;;;;5025547;28;20039;-86
2022/08/18 06:19:21;;;;;;;14.27;7.97;;;21.50;99.90;;;;;;5054745;28;20033;-87
2022/08/18 06:22:25;;;;;;;11.68;7.05;;;21.50;99.90;;;;;;5064999;28;20017;-85
2022/08/18 06:25:34;;;;;;;13.10;7.00;;;21.60;99.90;;;;;;5040819;28;20472;-84
2022/08/18 06:28:07;;;;;;;9.15;7.18;;;21.60;99.90;;;;;;5016372;28;20025;-84
2022/08/18 06:30:54;;;;;;;9.15;6.38;;;21.60;99.90;;;;;;5036247;28;20029;-84
2022/08/18 06:33:42;;;;;;;13.93;6.88;;;21.60;99.90;;;;;;5032243;28;20033;-85
2022/08/18 06:37:03;;;;;;;9.05;6.50;;;21.60;99.90;;;;;;5058875;28;20029;-84
2022/08/18 06:39:44;;;;;;;9.98;6.70;;;21.60;99.90;;;;;;5054355;28;20091;-84
2022/08/18 06:42:10;;;;;;;11.02;7.00;;;21.60;99.90;;;;;;5046235;28;20088;-84
2022/08/18 06:44:42;;;;;;;10.30;6.65;;;21.60;99.90;;;;;;5057718;28;20040;-82
2022/08/18 06:47:39;;;;;;;8.70;6.70;;;21.70;99.90;;;;;;5066634;28;20025;-83
2022/08/18 06:50:12;;;;;;;11.13;6.60;;;21.70;99.90;;;;;;5056726;28;20029;-85
2022/08/18 06:52:50;;;;;;;10.05;6.03;;;21.70;99.90;;;;;;5055480;28;20032;-84
2022/08/18 06:55:29;;;;;;;10.15;5.93;;;21.70;99.90;;;;;;5089152;28;20021;-74
2022/08/18 06:57:57;;;;;;;8.85;6.35;;;21.70;99.90;;;;;;5053330;28;20025;-75
2022/08/18 07:00:26;;;;;;;9.70;5.82;;;21.70;99.90;;;;;;5054930;28;20055;-75
2022/08/18 07:03:11;;;;;;;7.22;5.82;;;21.80;99.90;;;;;;5061392;28;20040;-75
2022/08/18 07:05:58;;;;;;;9.73;5.82;;;21.80;99.90;;;;;;5074998;28;20048;-75
2022/08/18 07:08:49;;;;;;;7.75;5.70;;;21.80;99.90;;;;;;5074689;28;20032;-75
2022/08/18 07:11:31;;;;;;;8.88;5.07;;;21.80;99.90;;;;;;5074696;28;20047;-75
2022/08/18 07:14:10;;;;;;;8.50;5.05;;;21.80;99.90;;;;;;5074288;28;20021;-75
2022/08/18 07:16:36;;;;;;;8.57;5.03;;;21.90;99.90;;;;;;5074958;28;20025;-75
2022/08/18 07:19:19;;;;;;;8.35;4.95;;;21.90;99.90;;;;;;5072801;28;20078;-75
2022/08/18 07:22:06;;;;;;;6.80;4.95;;;21.90;99.90;;;;;;5074595;28;20043;-74
2022/08/18 07:24:53;;;;;;;8.32;5.07;;;22.00;99.90;;;;;;5074228;28;20484;-75
2022/08/18 07:27:21;;;;;;;10.00;4.75;;;22.00;99.90;;;;;;5074638;28;20047;-75
2022/08/18 07:30:10;;;;;;;6.78;4.38;;;22.00;99.90;;;;;;5074176;28;20025;-75
2022/08/18 07:32:57;;;;;;;7.55;4.68;;;22.10;99.90;;;;;;5074559;28;20042;-75
2022/08/18 07:35:50;;;;;;;9.85;5.45;;;22.10;99.90;;;;;;5076526;28;20031;-75
2022/08/18 07:38:21;;;;;;;6.40;4.60;;;22.20;99.90;;;;;;5073958;28;20054;-76
2022/08/18 07:41:10;;;;;;;7.03;4.38;;;22.20;99.90;;;;;;5072405;28;20036;-74
2022/08/18 07:43:55;;;;;;;7.32;4.90;;;22.20;99.90;;;;;;5072565;28;20025;-75
2022/08/18 07:46:37;;;;;;;7.85;4.22;;;22.30;99.90;;;;;;5073501;28;20017;-74
2022/08/18 07:49:04;;;;;;;5.78;4.35;;;22.30;99.90;;;;;;5063768;28;20037;-73
2022/08/18 07:51:42;;;;;;;5.47;3.88;;;22.30;99.90;;;;;;5070495;28;20024;-74
2022/08/18 07:54:35;;;;;;;7.50;4.60;;;22.40;99.90;;;;;;5073262;28;20056;-73
2022/08/18 07:57:23;;;;;;;8.13;4.47;;;22.40;99.90;;;;;;5071972;28;20411;-75
2022/08/18 08:00:03;;;;;;;6.80;4.25;;;22.40;99.90;;;;;;5073158;28;20029;-74
2022/08/18 08:03:05;;;;;;;8.90;4.20;;;22.50;99.90;;;;;;5073547;28;20036;-74
2022/08/18 08:05:41;;;;;;;7.50;4.65;;;22.50;99.90;;;;;;5072378;28;20051;-74
2022/08/18 08:08:27;;;;;;;6.70;4.70;;;22.60;99.90;;;;;;5073574;28;20103;-74
2022/08/18 08:11:15;;;;;;;6.50;4.40;;;22.60;99.90;;;;;;5074114;28;20043;-74
2022/08/18 08:14:11;;;;;;;6.47;3.90;;;22.60;99.90;;;;;;5073846;28;20440;-74
2022/08/18 08:16:44;;;;;;;7.55;4.18;;;22.70;99.90;;;;;;5073801;28;20025;-74
2022/08/18 08:19:25;;;;;;;6.63;4.10;;;22.80;99.90;;;;;;5071831;28;20040;-74
2022/08/18 08:21:56;;;;;;;;;;;22.80;99.90;;;;;;5072431;28;20138;-74
2022/08/18 08:24:36;;;;;;;6.80;4.80;;;22.90;99.90;;;;;;5072583;28;19904;-74
2022/08/18 08:27:36;;;;;;;6.28;4.03;;;22.90;99.90;;;;;;5073093;28;20052;-74
2022/08/18 08:30:16;;;;;;;5.40;3.80;;;23.00;99.90;;;;;;5072575;28;20016;-74
2022/08/18 08:33:12;;;;;;;8.95;4.88;;;23.10;99.90;;;;;;5074123;28;20025;-74
2022/08/18 08:35:46;;;;;;;6.95;4.22;;;23.10;99.90;;;;;;5068711;28;20036;-74
2022/08/18 08:38:26;;;;;;;6.80;4.35;;;23.20;99.90;;;;;;5073106;28;20021;-74
2022/08/18 08:41:02;;;;;;;8.25;4.60;;;23.30;99.90;;;;;;5072945;28;20025;-74
2022/08/18 08:43:40;;;;;;;7.47;4.45;;;23.30;99.90;;;;;;5073141;28;20399;-74
2022/08/18 08:46:19;;;;;;;7.07;3.80;;;23.40;99.90;;;;;;5072924;28;20024;-77
2022/08/18 08:49:18;;;;;;;7.65;4.30;;;23.40;99.90;;;;;;5060356;28;20027;-74
2022/08/18 08:52:03;;;;;;;4.43;3.30;;;23.40;99.90;;;;;;5073381;28;20029;-75
2022/08/18 08:54:48;;;;;;;6.63;3.70;;;23.50;99.90;;;;;;5072723;28;20036;-76
2022/08/18 08:57:16;;;;;;;7.95;3.97;;;23.60;99.90;;;;;;5073021;28;20016;-75
2022/08/18 08:59:46;;;;;;;7.10;4.50;;;23.60;99.90;;;;;;5073159;28;20024;-75
2022/08/18 09:02:17;;;;;;;5.53;3.67;;;23.70;99.90;;;;;;5072195;28;20033;-75
2022/08/18 09:05:04;;;;;;;8.85;3.95;;;23.70;99.90;;;;;;5071179;28;20025;-75
2022/08/18 09:07:41;;;;;;;6.70;3.85;;;23.70;99.90;;;;;;5072943;28;20066;-75
2022/08/18 09:10:41;;;;;;;7.30;3.92;;;23.80;99.90;;;;;;5072111;28;20139;-75
2022/08/18 09:13:31;;;;;;;5.43;3.35;;;23.80;99.90;;;;;;5051984;28;20028;-74
2022/08/18 09:16:19;;;;;;;7.68;4.10;;;23.90;99.90;;;;;;5072735;28;20031;-75
2022/08/18 09:18:55;;;;;;;4.35;3.15;;;23.90;99.90;;;;;;5075254;28;20020;-75
2022/08/18 09:21:37;;;;;;;6.63;3.92;;;23.90;99.90;;;;;;5066390;28;20049;-83
2022/08/18 09:24:28;;;;;;;5.90;3.88;;;24.00;99.90;;;;;;5053667;28;20032;-83
2022/08/18 09:27:03;;;;;;;9.48;5.43;;;24.00;99.90;;;;;;5047946;28;20028;-83
2022/08/18 09:29:37;;;;;;;6.95;3.80;;;24.10;99.90;;;;;;5058112;28;20516;-84
2022/08/18 09:32:21;;;;;;;6.10;3.50;;;24.10;99.90;;;;;;5072824;28;20387;-83
2022/08/18 09:34:59;;;;;;;6.07;3.92;;;24.20;99.90;;;;;;5057474;28;20033;-83
2022/08/18 09:43:36;;;;;;;5.90;3.45;;;24.30;99.80;;;;;;5039675;28;20078;-85
2022/08/18 09:46:04;;;;;;;5.35;3.50;;;24.40;99.80;;;;;;5051818;28;20377;-84
2022/08/18 09:48:38;;;;;;;5.65;3.30;;;24.50;99.70;;;;;;5051768;28;20032;-83
2022/08/18 09:51:34;;;;;;;4.80;3.42;;;24.50;99.50;;;;;;5066039;28;20048;-83
2022/08/18 09:54:13;;;;;;;7.18;3.33;;;24.60;99.20;;;;;;5051707;28;20021;-84
2022/08/18 09:56:51;;;;;;;5.53;3.40;;;24.60;99.00;;;;;;5065655;28;20021;-84
2022/08/18 09:59:31;;;;;;;6.43;3.35;;;24.60;98.70;;;;;;5061510;28;20098;-83
2022/08/18 10:01:58;;;;;;;7.57;3.80;;;24.70;98.70;;;;;;5070363;28;20087;-83
2022/08/18 10:04:49;;;;;;;4.93;3.10;;;24.70;98.60;;;;;;5042006;28;20108;-83
2022/08/18 10:07:36;;;;;;;6.30;3.30;;;24.70;98.60;;;;;;5056023;28;20086;-83
2022/08/18 10:10:21;;;;;;;4.75;3.22;;;24.80;98.60;;;;;;5066142;28;20031;-83
2022/08/18 10:13:15;;;;;;;3.88;2.95;;;24.80;98.40;;;;;;5061340;28;20028;-83
2022/08/18 10:15:55;;;;;;;4.85;3.33;;;24.90;98.40;;;;;;5063688;28;20063;-83
2022/08/18 10:18:40;;;;;;;3.58;2.97;;;24.90;98.20;;;;;;5055596;28;20236;-84
2022/08/18 10:21:26;;;;;;;5.50;3.50;;;24.90;98.00;;;;;;5054323;28;20504;-83
2022/08/18 10:23:55;;;;;;;4.40;3.50;;;24.90;97.80;;;;;;5055286;28;20178;-83
2022/08/18 10:26:29;;;;;;;5.43;3.30;;;25.00;97.60;;;;;;5055023;28;20174;-83
2022/08/18 10:28:56;;;;;;;8.77;3.58;;;25.00;97.50;;;;;;5055325;28;20031;-83
2022/08/18 10:31:23;;;;;;;4.75;3.03;;;25.00;97.30;;;;;;5050908;28;20040;-83
2022/08/18 10:34:31;;;;;;;5.55;3.00;;;25.00;97.30;;;;;;5061105;28;20021;-83
2022/08/18 10:37:00;;;;;;;5.53;2.97;;;25.10;97.50;;;;;;5071616;28;20021;-83
2022/08/18 10:39:48;;;;;;;6.40;3.47;;;25.10;97.30;;;;;;5071141;28;20441;-83
2022/08/18 10:42:33;;;;;;;5.47;3.20;;;25.10;97.10;;;;;;5060270;28;20445;-82
2022/08/18 10:45:23;;;;;;;6.55;3.60;;;25.10;96.90;;;;;;5078091;28;20021;-82
2022/08/18 10:48:04;;;;;;;4.65;3.05;;;25.20;96.80;;;;;;5080821;28;20017;-82
2022/08/18 10:50:43;;;;;;;7.57;3.13;;;25.20;96.70;;;;;;5065578;28;20106;-78
2022/08/18 10:53:30;;;;;;;5.13;3.10;;;25.20;96.70;;;;;;5061271;28;20021;-79
2022/08/18 10:56:16;;;;;;;5.13;3.30;;;25.20;96.60;;;;;;5074101;28;20028;-79
2022/08/18 10:59:03;;;;;;;8.48;3.25;;;25.30;96.60;;;;;;5074218;28;20017;-78
2022/08/18 11:02:01;;;;;;;4.68;3.30;;;25.30;96.50;;;;;;5075262;28;20028;-79
2022/08/18 11:04:43;;;;;;;4.78;3.60;;;25.30;96.40;;;;;;5073935;28;20032;-79
2022/08/18 11:07:10;;;;;;;4.78;3.10;;;25.40;96.40;;;;;;5075106;28;20017;-80
2022/08/18 11:09:37;;;;;;;5.65;3.78;;;25.40;96.20;;;;;;5074149;28;20063;-80
2022/08/18 11:12:04;;;;;;;7.28;4.53;;;25.50;96.20;;;;;;5073848;28;20475;-80
2022/08/18 11:14:36;;;;;;;6.80;3.67;;;25.50;95.90;;;;;;5057487;28;20545;-80
2022/08/18 11:17:16;;;;;;;4.68;3.20;;;25.50;95.70;;;;;;5060247;28;20036;-80
2022/08/18 11:19:44;;;;;;;7.05;4.13;;;25.50;95.70;;;;;;5053695;28;20025;-79
2022/08/18 11:22:31;;;;;;;5.93;3.90;;;25.60;95.60;;;;;;5055024;28;20029;-80
2022/08/18 11:24:57;;;;;;;6.50;4.22;;;25.60;95.20;;;;;;5053965;28;20028;-80
2022/08/18 11:27:29;;;;;;;8.13;4.10;;;25.60;95.30;;;;;;5054706;28;20523;-80
2022/08/18 11:29:59;;;;;;;6.07;4.50;;;25.60;94.80;;;;;;5053738;28;20037;-79
2022/08/18 11:32:32;;;;;;;8.13;4.53;;;25.60;94.60;;;;;;5054638;28;20468;-80
2022/08/18 11:34:58;;;;;;;6.35;3.90;;;25.60;94.30;;;;;;5053746;28;20017;-79
2022/08/18 11:37:42;;;;;;;6.97;3.80;;;25.50;94.40;;;;;;5053530;28;20020;-79
2022/08/18 11:40:25;;;;;;;5.80;4.25;;;25.60;94.60;;;;;;5039266;28;20393;-80
2022/08/18 11:42:58;;;;;;;7.25;4.07;;;25.60;94.70;;;;;;5053504;28;20044;-79
2022/08/18 11:45:28;;;;;;;6.10;4.15;;;25.60;94.60;;;;;;5054601;28;20036;-83
2022/08/18 11:48:20;;;;;;;6.50;3.83;;;25.60;94.30;;;;;;5054001;28;20032;-84
2022/08/18 11:50:48;;;;;;;8.30;4.63;;;25.60;94.10;;;;;;5039637;28;20465;-84
2022/08/18 11:53:44;;;;;;;8.45;4.78;;;25.60;93.80;;;;;;5055221;28;20080;-85
2022/08/18 11:56:16;;;;;;;9.43;4.47;;;25.60;93.70;;;;;;5049806;28;20473;-84
2022/08/18 11:59:20;;;;;;;8.45;5.18;;;25.60;93.60;;;;;;5056078;28;20029;-81
2022/08/18 12:01:49;;;;;;;5.38;4.38;;;25.60;93.50;;;;;;5037343;28;20057;-83
2022/08/18 12:04:27;;;;;;;7.65;4.90;;;25.60;93.40;;;;;;5051327;28;20021;-85
2022/08/18 12:06:58;;;;;;;6.97;4.50;;;25.60;93.60;;;;;;5054872;28;20031;-84
2022/08/18 12:10:01;;;;;;;8.07;4.35;;;25.70;93.60;;;;;;5054161;28;20025;-85
2022/08/18 12:12:30;;;;;;;5.57;4.32;;;25.60;93.60;;;;;;5054308;28;20055;-85
2022/08/18 12:15:11;;;;;;;5.53;3.78;;;25.70;93.60;;;;;;5054021;28;20100;-84
2022/08/18 12:17:37;;;;;;;;;;;25.70;93.60;;;;;;5045714;28;20025;-85
2022/08/18 12:20:07;;;;;;;5.82;4.20;;;25.70;93.40;;;;;;5036511;28;19944;-87
2022/08/18 12:22:33;;;;;;;6.57;3.65;;;25.70;93.40;;;;;;5065632;28;20092;-85
2022/08/18 12:25:00;;;;;;;7.20;4.32;;;25.60;93.20;;;;;;5054974;28;20021;-85
2022/08/18 12:27:27;;;;;;;7.45;4.03;;;25.70;93.30;;;;;;5048312;28;20024;-84
2022/08/18 12:29:55;;;;;;;5.20;3.78;;;25.60;93.30;;;;;;5058718;28;20020;-84
2022/08/18 12:32:23;;;;;;;8.38;4.55;;;25.70;93.20;;;;;;5055674;28;20029;-84
2022/08/18 12:34:49;;;;;;;4.65;3.58;;;25.70;93.50;;;;;;5071416;28;20028;-85
2022/08/18 12:37:18;;;;;;;4.93;3.55;;;25.70;93.40;;;;;;5045211;28;20021;-86
2022/08/18 12:39:45;;;;;;;6.15;3.83;;;25.70;93.40;;;;;;5057794;28;20440;-85
2022/08/18 12:42:11;;;;;;;7.25;4.35;;;25.60;93.20;;;;;;5033225;28;20033;-85
2022/08/18 12:44:37;;;;;;;4.88;4.03;;;25.70;92.90;;;;;;5050976;28;20061;-80
2022/08/18 12:47:10;;;;;;;8.93;4.18;;;25.60;92.70;;;;;;5056275;28;20071;-80
2022/08/18 12:49:36;;;;;;;7.50;4.18;;;25.60;92.70;;;;;;5054012;28;20052;-81
2022/08/18 12:52:04;;;;;;;5.93;3.85;;;25.60;92.70;;;;;;5038492;28;20428;-79
2022/08/18 12:54:31;;;;;;;5.50;3.65;;;25.60;92.80;;;;;;5063607;28;20036;-79
2022/08/18 12:56:57;;;;;;;5.57;3.88;;;25.60;92.80;;;;;;5035078;28;20028;-81
2022/08/18 12:59:24;;;;;;;5.50;3.33;;;25.60;92.80;;;;;;5066554;28;20059;-80
2022/08/18 13:01:50;;;;;;;7.78;3.92;;;25.60;92.90;;;;;;5047180;28;20025;-80
2022/08/18 13:04:16;;;;;;;4.90;3.58;;;25.60;93.10;;;;;;5067740;28;20073;-80
2022/08/18 13:06:54;;;;;;;6.38;3.88;;;25.70;93.20;;;;;;5041600;28;20029;-80
2022/08/18 13:09:23;;;;;;;5.60;3.78;;;25.70;93.20;;;;;;5041589;28;20051;-81
2022/08/18 13:11:49;;;;;;;5.43;3.50;;;25.70;93.20;;;;;;5052723;28;20044;-80
2022/08/18 13:14:15;;;;;;;5.50;3.22;;;25.70;93.20;;;;;;5056840;28;20028;-80
2022/08/18 13:16:43;;;;;;;4.57;3.60;;;25.70;93.20;;;;;;5071374;28;20044;-79
2022/08/18 13:19:09;;;;;;;6.72;3.67;;;25.80;93.00;;;;;;5058616;28;20021;-80
2022/08/18 13:21:35;;;;;;;4.85;3.38;;;25.80;92.90;;;;;;5072352;28;20538;-80
2022/08/18 13:24:03;;;;;;;6.80;3.55;;;25.80;92.80;;;;;;5071823;28;20123;-80
2022/08/18 13:26:31;;;;;;;5.00;3.58;;;25.80;92.70;;;;;;5072872;28;20021;-80
2022/08/18 13:28:59;;;;;;;6.85;3.10;;;25.80;92.60;;;;;;5071161;28;20540;-80
2022/08/18 13:31:26;;;;;;;4.57;3.50;;;25.80;92.70;;;;;;5057658;28;20078;-80
2022/08/18 13:33:52;;;;;;;4.75;3.00;;;25.80;92.80;;;;;;5072861;28;20035;-80